createdAt,value
2023-04-01T00:00:04.916Z,69.98
2023-04-01T00:03:57.603Z,69.91
2023-04-01T00:07:25.313Z,69.94
2023-04-01T00:10:58.862Z,70.04
2023-04-01T00:14:26.163Z,69.97
2023-04-01T00:17:53.457Z,69.89
2023-04-01T00:21:21.864Z,70.04
2023-04-01T00:24:49.882Z,70.30
2023-04-01T00:28:17.590Z,70.18
2023-04-01T00:31:44.586Z,70.20
2023-04-01T00:35:13.780Z,70.23
2023-04-01T00:38:44.148Z,70.38
2023-04-01T00:42:13.567Z,70.50
2023-04-01T00:45:42.832Z,70.61
2023-04-01T00:49:17.011Z,70.31
2023-04-01T00:52:45.615Z,70.51
2023-04-01T00:56:18.065Z,70.66
2023-04-01T01:00:01.536Z,70.45
2023-04-01T01:03:30.007Z,70.44
2023-04-01T01:07:06.703Z,70.56
2023-04-01T01:10:37.578Z,70.38
2023-04-01T01:14:15.359Z,70.42
2023-04-01T01:17:55.068Z,70.49
2023-04-01T01:21:57.622Z,70.48
2023-04-01T01:25:43.356Z,70.44
2023-04-01T01:29:20.126Z,70.60
2023-04-01T01:33:09.981Z,70.71
2023-04-01T01:36:40.448Z,70.71
2023-04-01T01:40:14.405Z,70.76
2023-04-01T01:43:46.849Z,70.84
2023-04-01T01:47:17.019Z,70.94
2023-04-01T01:50:48.285Z,70.98
2023-04-01T01:54:20.037Z,70.96
2023-04-01T01:57:48.536Z,71.00
2023-04-01T02:01:24.797Z,71.06
2023-04-01T02:04:55.375Z,71.06
2023-04-01T02:08:27.749Z,71.09
2023-04-01T02:12:01.000Z,70.97
2023-04-01T02:15:34.502Z,71.06
2023-04-01T02:19:08.756Z,71.01
2023-04-01T02:22:36.396Z,70.99
2023-04-01T02:26:11.131Z,71.16
2023-04-01T02:29:38.508Z,71.30
2023-04-01T02:33:08.673Z,71.27
2023-04-01T02:36:37.420Z,71.36
2023-04-01T02:40:07.682Z,71.41
2023-04-01T02:43:36.221Z,71.41
2023-04-01T02:47:03.276Z,71.46
2023-04-01T02:50:30.645Z,71.45
2023-04-01T02:53:58.689Z,71.44
2023-04-01T02:57:25.545Z,71.58
2023-04-01T03:00:52.908Z,71.34
2023-04-01T03:04:20.108Z,71.59
2023-04-01T03:07:46.980Z,71.61
2023-04-01T03:11:15.041Z,71.66
2023-04-01T03:14:43.014Z,71.79
2023-04-01T03:18:10.261Z,71.63
2023-04-01T03:21:37.388Z,71.56
2023-04-01T03:25:05.398Z,71.60
2023-04-01T03:28:32.909Z,71.70
2023-04-01T03:32:00.716Z,71.73
2023-04-01T03:35:28.110Z,71.77
2023-04-01T03:38:54.783Z,71.85
2023-04-01T03:42:24.618Z,71.92
2023-04-01T03:45:52.813Z,72.00
2023-04-01T03:49:20.151Z,72.13
2023-04-01T03:52:47.412Z,72.05
2023-04-01T03:56:14.835Z,72.18
2023-04-01T03:59:42.404Z,71.80
2023-04-01T04:03:10.110Z,71.95
2023-04-01T04:06:37.902Z,72.08
2023-04-01T04:10:05.308Z,72.12
2023-04-01T04:13:32.124Z,71.92
2023-04-01T04:17:01.637Z,72.01
2023-04-01T04:20:28.461Z,72.11
2023-04-01T04:23:56.200Z,71.83
2023-04-01T04:27:24.525Z,72.19
2023-04-01T04:30:57.880Z,71.99
2023-04-01T04:34:25.008Z,72.22
2023-04-01T04:37:51.983Z,72.28
2023-04-01T04:41:20.893Z,72.56
2023-04-01T04:44:49.408Z,72.37
2023-04-01T04:48:19.994Z,72.51
2023-04-01T04:51:47.863Z,72.58
2023-04-01T04:55:16.374Z,72.56
2023-04-01T04:58:45.952Z,72.66
2023-04-01T05:02:16.391Z,72.66
2023-04-01T05:05:50.366Z,72.61
2023-04-01T05:09:17.531Z,72.65
2023-04-01T05:12:44.824Z,72.64
2023-04-01T05:16:19.334Z,72.48
2023-04-01T05:19:46.745Z,72.58
2023-04-01T05:23:14.379Z,72.26
2023-04-01T05:26:41.385Z,72.44
2023-04-01T05:30:10.123Z,72.80
2023-04-01T05:33:57.084Z,72.57
2023-04-01T05:37:24.658Z,72.81
2023-04-01T05:40:52.041Z,72.81
2023-04-01T05:44:19.593Z,72.66
2023-04-01T05:48:07.602Z,72.78
2023-04-01T05:51:38.707Z,72.72
2023-04-01T05:55:06.920Z,72.93
2023-04-01T05:58:33.681Z,73.05
2023-04-01T06:02:01.301Z,73.17
2023-04-01T06:05:32.940Z,73.09
2023-04-01T06:09:05.048Z,73.48
2023-04-01T06:12:46.067Z,73.11
2023-04-01T06:16:23.744Z,72.93
2023-04-01T06:19:59.575Z,73.14
2023-04-01T06:23:49.590Z,72.76
2023-04-01T06:27:28.600Z,73.24
2023-04-01T06:31:01.706Z,73.13
2023-04-01T06:35:01.732Z,73.18
2023-04-01T06:39:03.197Z,72.96
2023-04-01T06:42:51.437Z,73.16
2023-04-01T06:46:48.179Z,73.08
2023-04-01T06:50:45.182Z,73.20
2023-04-01T06:54:40.062Z,73.02
2023-04-01T06:58:13.928Z,73.49
2023-04-01T07:01:46.660Z,73.29
2023-04-01T07:05:17.174Z,73.45
2023-04-01T07:08:47.829Z,73.39
2023-04-01T07:12:24.132Z,73.22
2023-04-01T07:16:21.594Z,73.52
2023-04-01T07:19:51.297Z,73.51
2023-04-01T07:23:24.516Z,73.12
2023-04-01T07:27:23.854Z,73.54
2023-04-01T07:31:05.242Z,73.15
2023-04-01T07:34:38.045Z,73.32
2023-04-01T07:38:17.326Z,73.02
2023-04-01T07:41:53.937Z,73.18
2023-04-01T07:45:27.914Z,73.42
2023-04-01T07:49:03.162Z,73.25
2023-04-01T07:52:38.288Z,73.42
2023-04-01T07:56:17.203Z,73.35
2023-04-01T07:59:56.448Z,73.25
2023-04-01T08:03:59.160Z,73.24
2023-04-01T08:07:33.920Z,73.24
2023-04-01T08:11:43.600Z,73.22
2023-04-01T08:15:38.629Z,73.35
2023-04-01T08:19:26.727Z,73.37
2023-04-01T08:23:02.124Z,73.38
2023-04-01T08:26:42.512Z,73.48
2023-04-01T08:30:22.904Z,73.55
2023-04-01T08:33:52.383Z,73.32
2023-04-01T08:37:23.465Z,73.43
2023-04-01T08:41:04.952Z,73.27
2023-04-01T08:45:17.110Z,73.39
2023-04-01T08:49:22.871Z,73.54
2023-04-01T08:53:01.718Z,72.90
2023-04-01T08:56:34.083Z,73.42
2023-04-01T09:00:08.243Z,73.18
2023-04-01T09:04:16.983Z,73.33
2023-04-01T09:07:55.862Z,73.21
2023-04-01T09:11:45.449Z,73.28
2023-04-01T09:15:25.942Z,73.42
2023-04-01T09:19:14.518Z,73.18
2023-04-01T09:22:57.683Z,73.05
2023-04-01T09:26:40.377Z,73.10
2023-04-01T09:30:36.562Z,73.22
2023-04-01T09:34:27.718Z,73.37
2023-04-01T09:38:14.845Z,73.47
2023-04-01T09:41:59.783Z,73.47
2023-04-01T09:45:48.989Z,73.54
2023-04-01T09:49:40.394Z,73.55
2023-04-01T09:53:22.934Z,73.04
2023-04-01T09:57:20.294Z,72.77
2023-04-01T10:01:29.373Z,72.89
2023-04-01T10:05:22.457Z,72.87
2023-04-01T10:09:34.431Z,73.17
2023-04-01T10:13:44.869Z,72.84
2023-04-01T10:17:56.549Z,73.18
2023-04-01T10:21:47.377Z,72.82
2023-04-01T10:26:00.404Z,73.09
2023-04-01T10:30:07.703Z,72.94
2023-04-01T10:34:03.661Z,72.90
2023-04-01T10:37:57.323Z,72.71
2023-04-01T10:41:53.400Z,72.64
2023-04-01T10:45:56.064Z,72.82
2023-04-01T10:49:49.472Z,72.83
2023-04-01T10:53:42.293Z,72.46
2023-04-01T10:57:53.770Z,72.36
2023-04-01T11:02:22.742Z,72.55
2023-04-01T11:06:38.992Z,72.24
2023-04-01T11:10:42.895Z,72.05
2023-04-01T11:14:42.943Z,72.18
2023-04-01T11:18:42.218Z,72.56
2023-04-01T11:22:33.791Z,72.13
2023-04-01T11:26:19.981Z,72.23
2023-04-01T11:30:32.006Z,71.96
2023-04-01T11:34:05.852Z,71.94
2023-04-01T11:37:47.666Z,72.00
2023-04-01T11:41:44.594Z,72.00
2023-04-01T11:45:41.547Z,71.85
2023-04-01T11:49:28.196Z,71.89
2023-04-01T11:53:17.517Z,71.93
2023-04-01T11:57:00.609Z,71.92
2023-04-01T12:00:54.502Z,72.05
2023-04-01T12:04:39.665Z,71.99
2023-04-01T12:08:17.071Z,71.95
2023-04-01T12:11:55.210Z,71.94
2023-04-01T12:15:29.189Z,72.08
2023-04-01T12:19:00.789Z,71.73
2023-04-01T12:22:38.127Z,71.61
2023-04-01T12:26:36.380Z,71.52
2023-04-01T12:30:36.072Z,71.39
2023-04-01T12:34:27.515Z,71.12
2023-04-01T12:38:09.160Z,71.33
2023-04-01T12:41:49.017Z,71.37
2023-04-01T12:45:32.668Z,71.56
2023-04-01T12:49:22.905Z,71.37
2023-04-01T12:53:04.463Z,71.25
2023-04-01T12:56:41.461Z,71.44
2023-04-01T13:00:26.813Z,71.19
2023-04-01T13:04:14.022Z,71.17
2023-04-01T13:07:55.902Z,70.92
2023-04-01T13:11:37.982Z,70.94
2023-04-01T13:15:29.271Z,70.83
2023-04-01T13:19:04.865Z,70.76
2023-04-01T13:22:38.822Z,70.42
2023-04-01T13:26:16.525Z,70.41
2023-04-01T13:29:47.270Z,70.48
2023-04-01T13:33:29.693Z,70.51
2023-04-01T13:37:10.994Z,70.47
2023-04-01T13:40:59.577Z,70.05
2023-04-01T13:44:38.357Z,70.39
2023-04-01T13:48:29.195Z,70.06
2023-04-01T13:52:06.604Z,70.17
2023-04-01T13:55:52.443Z,70.07
2023-04-01T13:59:58.082Z,70.08
2023-04-01T14:03:40.872Z,70.17
2023-04-01T14:07:25.060Z,70.27
2023-04-01T14:11:02.923Z,69.98
2023-04-01T14:14:44.002Z,69.93
2023-04-01T14:18:36.195Z,69.61
2023-04-01T14:22:16.589Z,69.78
2023-04-01T14:26:10.991Z,69.81
2023-04-01T14:29:50.610Z,69.46
2023-04-01T14:33:36.968Z,69.88
2023-04-01T14:37:20.576Z,69.73
2023-04-01T14:41:03.249Z,69.81
2023-04-01T14:44:56.797Z,69.43
2023-04-01T14:48:33.184Z,69.49
2023-04-01T14:52:12.463Z,69.64
2023-04-01T14:55:52.805Z,69.36
2023-04-01T14:59:31.490Z,69.86
2023-04-01T15:03:05.248Z,69.90
2023-04-01T15:06:43.921Z,69.98
2023-04-01T15:10:23.648Z,69.77
2023-04-01T15:14:22.374Z,69.87
2023-04-01T15:17:59.822Z,69.94
2023-04-01T15:21:51.604Z,69.48
2023-04-01T15:25:36.369Z,69.68
2023-04-01T15:29:35.461Z,69.34
2023-04-01T15:33:28.906Z,69.40
2023-04-01T15:37:04.898Z,69.25
2023-04-01T15:40:41.033Z,69.06
2023-04-01T15:44:29.185Z,69.03
2023-04-01T15:48:07.328Z,69.38
2023-04-01T15:51:58.580Z,69.35
2023-04-01T15:55:35.070Z,69.16
2023-04-01T15:59:24.628Z,69.33
2023-04-01T16:03:13.270Z,69.05
2023-04-01T16:06:55.746Z,69.15
2023-04-01T16:10:34.894Z,69.42
2023-04-01T16:14:15.682Z,69.34
2023-04-01T16:18:05.326Z,69.14
2023-04-01T16:21:48.950Z,69.28
2023-04-01T16:25:33.013Z,69.36
2023-04-01T16:29:10.134Z,69.26
2023-04-01T16:32:47.305Z,69.35
2023-04-01T16:36:29.261Z,69.43
2023-04-01T16:40:17.674Z,69.62
2023-04-01T16:43:56.171Z,69.64
2023-04-01T16:47:30.573Z,69.77
2023-04-01T16:51:01.906Z,69.93
2023-04-01T16:54:39.613Z,69.77
2023-04-01T16:58:12.734Z,69.99
2023-04-01T17:01:52.399Z,69.87
2023-04-01T17:05:19.737Z,69.99
2023-04-01T17:09:05.035Z,69.90
2023-04-01T17:12:47.334Z,69.94
2023-04-01T17:17:05.458Z,69.88
2023-04-01T17:20:50.430Z,69.76
2023-04-01T17:24:39.667Z,69.66
2023-04-01T17:28:24.317Z,69.78
2023-04-01T17:32:08.272Z,69.69
2023-04-01T17:35:42.315Z,69.72
2023-04-01T17:39:33.601Z,69.79
2023-04-01T17:43:13.088Z,69.92
2023-04-01T17:47:03.391Z,69.79
2023-04-01T17:50:55.586Z,69.77
2023-04-01T17:54:30.273Z,69.82
2023-04-01T17:58:08.444Z,69.83
2023-04-01T18:01:59.398Z,70.03
2023-04-01T18:05:36.961Z,70.03
2023-04-01T18:09:10.346Z,69.93
2023-04-01T18:13:04.677Z,70.14
2023-04-01T18:16:53.437Z,70.09
2023-04-01T18:20:43.256Z,70.03
2023-04-01T18:24:21.727Z,70.35
2023-04-01T18:27:54.266Z,70.23
2023-04-01T18:31:27.007Z,70.32
2023-04-01T18:35:04.456Z,70.43
2023-04-01T18:38:40.064Z,70.58
2023-04-01T18:42:19.103Z,70.55
2023-04-01T18:45:54.550Z,70.47
2023-04-01T18:49:33.310Z,70.49
2023-04-01T18:53:14.887Z,70.33
2023-04-01T18:56:47.490Z,70.42
2023-04-01T19:00:23.560Z,70.64
2023-04-01T19:04:03.288Z,70.56
2023-04-01T19:07:48.581Z,70.85
2023-04-01T19:11:33.019Z,70.69
2023-04-01T19:15:31.348Z,70.71
2023-04-01T19:19:23.764Z,70.77
2023-04-01T19:23:16.473Z,70.70
2023-04-01T19:26:50.733Z,70.86
2023-04-01T19:30:51.558Z,70.93
2023-04-01T19:34:38.827Z,70.81
2023-04-01T19:38:15.814Z,71.12
2023-04-01T19:41:55.351Z,71.02
2023-04-01T19:45:39.009Z,71.25
2023-04-01T19:49:38.928Z,71.13
2023-04-01T19:53:26.960Z,71.43
2023-04-01T19:57:04.656Z,71.10
2023-04-01T20:00:39.745Z,71.26
2023-04-01T20:04:11.388Z,71.23
2023-04-01T20:07:46.710Z,71.03
2023-04-01T20:11:37.838Z,71.36
2023-04-01T20:15:21.308Z,71.41
2023-04-01T20:18:57.547Z,71.36
2023-04-01T20:22:37.191Z,71.26
2023-04-01T20:26:11.830Z,71.35
2023-04-01T20:30:06.979Z,71.58
2023-04-01T20:34:08.843Z,71.48
2023-04-01T20:37:43.723Z,71.62
2023-04-01T20:41:23.358Z,71.56
2023-04-01T20:45:00.926Z,71.36
2023-04-01T20:49:04.314Z,71.48
2023-04-01T20:52:40.938Z,71.84
2023-04-01T20:56:19.011Z,71.53
2023-04-01T21:00:01.700Z,71.71
2023-04-01T21:03:41.530Z,71.45
2023-04-01T21:07:31.754Z,71.81
2023-04-01T21:11:11.701Z,71.64
2023-04-01T21:14:59.952Z,71.56
2023-04-01T21:18:45.981Z,71.80
2023-04-01T21:22:40.906Z,71.74
2023-04-01T21:26:23.614Z,71.69
2023-04-01T21:30:02.154Z,71.58
2023-04-01T21:33:48.596Z,71.71
2023-04-01T21:37:46.476Z,71.75
2023-04-01T21:41:23.365Z,71.55
2023-04-01T21:45:07.163Z,71.85
2023-04-01T21:49:14.808Z,72.04
2023-04-01T21:53:27.416Z,71.98
2023-04-01T21:57:37.431Z,72.06
2023-04-01T22:01:25.163Z,71.83
2023-04-01T22:05:00.760Z,72.09
2023-04-01T22:08:46.506Z,72.10
2023-04-01T22:12:20.169Z,71.80
2023-04-01T22:16:12.188Z,72.05
2023-04-01T22:19:52.229Z,71.93
2023-04-01T22:23:28.829Z,72.08
2023-04-01T22:27:02.321Z,71.97
2023-04-01T22:30:35.760Z,72.02
2023-04-01T22:34:14.278Z,72.21
2023-04-01T22:37:55.657Z,71.99
2023-04-01T22:41:36.573Z,72.12
2023-04-01T22:45:23.305Z,72.09
2023-04-01T22:48:59.318Z,71.88
2023-04-01T22:52:35.888Z,72.01
2023-04-01T22:56:10.488Z,71.91
2023-04-01T22:59:48.773Z,71.73
2023-04-01T23:03:25.558Z,72.05
2023-04-01T23:06:58.755Z,72.05
2023-04-01T23:10:33.275Z,72.06
2023-04-01T23:14:19.653Z,72.35
2023-04-01T23:18:02.215Z,72.20
2023-04-01T23:21:38.594Z,72.18
2023-04-01T23:25:28.407Z,72.32
2023-04-01T23:29:00.900Z,72.09
2023-04-01T23:32:33.067Z,72.18
2023-04-01T23:36:09.303Z,72.21
2023-04-01T23:39:40.232Z,72.14
2023-04-01T23:43:27.576Z,72.34
2023-04-01T23:47:04.530Z,72.22
2023-04-01T23:50:44.620Z,72.37
2023-04-01T23:54:23.240Z,72.41
2023-04-01T23:58:12.775Z,72.35
